Time;durP1;ratioP1;P1;durP2;ratioP2;P2;SDS_P1;SDS_P2;PMS_P1;PMS_P2;Temp;Humidity;BMP_temperature;BMP_pressure;BME280_temperature;BME280_humidity;BME280_pressure;Samples;Min_cycle;Max_cycle;Signal;HPM_P1;HPM_P2
2023/01/26 00:01:35;;;;;;;0.47;0.43;;;;;;;1.78;100.00;100675.16;10404475;28;20041;-85
2023/01/26 00:06:37;;;;;;;1.05;0.73;;;;;;;1.69;100.00;100671.06;10404431;28;20370;-86
2023/01/26 00:11:39;;;;;;;1.80;0.88;;;;;;;1.70;100.00;100667.31;10405089;28;20050;-85
2023/01/26 00:16:42;;;;;;;2.40;1.05;;;;;;;1.66;100.00;100671.53;10402878;28;20049;-85
2023/01/26 00:21:44;;;;;;;1.75;0.55;;;;;;;1.66;100.00;100681.53;10404650;28;20054;-84
2023/01/26 00:26:47;;;;;;;0.43;0.43;;;;;;;1.71;100.00;100685.19;10405371;28;20054;-85
2023/01/26 00:31:49;;;;;;;2.63;0.60;;;;;;;1.77;100.00;100675.41;10410697;28;20127;-86
2023/01/26 00:36:51;;;;;;;0.70;0.70;;;;;;;1.78;100.00;100693.28;10412005;28;20049;-84
2023/01/26 00:42:07;;;;;;;1.23;0.88;;;;;;;1.75;100.00;100699.13;10410486;28;20432;-85
2023/01/26 00:47:12;;;;;;;1.15;0.70;;;;;;;1.80;100.00;100696.59;10410925;28;20052;-86
2023/01/26 00:52:14;;;;;;;0.63;0.60;;;;;;;1.89;100.00;100695.25;10394142;28;20048;-84
2023/01/26 00:57:16;;;;;;;1.27;0.93;;;;;;;1.80;100.00;100697.41;10411295;28;20045;-84
2023/01/26 01:02:19;;;;;;;0.90;0.60;;;;;;;1.87;100.00;100696.50;10393467;28;20049;-85
2023/01/26 01:07:21;;;;;;;0.77;0.70;;;;;;;1.81;100.00;100696.38;10411390;28;20057;-84
2023/01/26 01:12:24;;;;;;;0.40;0.40;;;;;;;1.78;100.00;100685.16;10410691;28;20046;-85
2023/01/26 01:17:26;;;;;;;0.60;0.40;;;;;;;1.80;100.00;100680.34;10410625;28;20058;-84
2023/01/26 01:22:28;;;;;;;0.28;0.28;;;;;;;1.75;100.00;100678.31;10410378;28;20072;-84
2023/01/26 01:27:30;;;;;;;0.57;0.50;;;;;;;1.68;100.00;100677.53;10409185;28;20046;-85
2023/01/26 01:32:34;;;;;;;0.70;0.70;;;;;;;1.80;100.00;100680.34;10414092;28;20064;-86
2023/01/26 01:37:37;;;;;;;0.68;0.63;;;;;;;1.84;100.00;100686.97;10417120;28;20045;-85
2023/01/26 01:42:46;;;;;;;0.22;0.22;;;;;;;1.81;100.00;100690.13;10409059;28;20062;-85
2023/01/26 01:47:49;;;;;;;0.57;0.57;;;;;;;1.71;100.00;100677.09;10408408;28;20460;-85
2023/01/26 01:52:53;;;;;;;0.77;0.70;;;;;;;1.76;100.00;100673.75;10410424;28;20045;-84
2023/01/26 01:57:59;;;;;;;0.28;0.28;;;;;;;1.78;100.00;100675.16;10392965;28;20041;-85
2023/01/26 02:03:12;;;;;;;0.40;0.40;;;;;;;1.79;100.00;100667.88;10408857;28;20053;-85
2023/01/26 02:08:16;;;;;;;0.55;0.55;;;;;;;1.74;100.00;100667.72;10408285;28;20053;-85
2023/01/26 02:13:19;;;;;;;1.02;0.68;;;;;;;1.94;100.00;100657.53;10406788;28;20049;-85
2023/01/26 02:18:22;;;;;;;0.50;0.50;;;;;;;1.87;100.00;100659.47;10391111;28;20050;-84
2023/01/26 02:23:35;;;;;;;0.90;0.73;;;;;;;1.91;100.00;100655.28;10408413;28;20056;-85
2023/01/26 02:28:39;;;;;;;0.75;0.73;;;;;;;1.84;100.00;100662.63;10407099;28;20049;-87
2023/01/26 02:33:41;;;;;;;0.75;0.75;;;;;;;1.89;100.00;100661.94;10373680;28;20053;-85
2023/01/26 02:38:51;;;;;;;0.65;0.43;;;;;;;1.83;100.00;100649.31;10407123;28;20539;-85
2023/01/26 02:43:53;;;;;;;0.60;0.60;;;;;;;1.76;100.00;100662.91;10405956;28;20416;-85
2023/01/26 02:59:38;;;;;;;0.35;0.35;;;;;;;1.81;100.00;100652.25;10405567;28;20050;-85
2023/01/26 03:04:42;;;;;;;0.40;0.40;;;;;;;1.85;100.00;100650.75;10405273;28;20071;-86
2023/01/26 03:09:44;;;;;;;0.50;0.50;;;;;;;1.84;100.00;100648.25;10404954;28;20050;-85
2023/01/26 03:15:33;;;;;;;0.70;0.52;;;;;;;1.83;100.00;100644.72;10405028;28;20532;-86
2023/01/26 03:30:53;;;;;;;0.70;0.65;;;;;;;1.93;100.00;100625.28;10388057;28;20042;-86
2023/01/26 03:35:55;;;;;;;0.70;0.70;;;;;;;1.87;100.00;100616.16;10406672;28;20048;-85
2023/01/26 03:57:03;;;;;;;2.58;0.85;;;;;;;1.77;100.00;100602.34;10406657;28;20050;-85
2023/01/26 04:23:36;;;;;;;0.63;0.63;;;;;;;1.78;100.00;100590.47;10403201;28;20406;-86
2023/01/26 04:28:39;;;;;;;0.90;0.63;;;;;;;1.64;100.00;100591.66;10403118;28;20523;-84
2023/01/26 04:33:42;;;;;;;0.60;0.60;;;;;;;1.78;100.00;100594.00;10402768;28;20049;-85
2023/01/26 04:38:45;;;;;;;0.55;0.55;;;;;;;1.76;100.00;100598.00;10402588;28;20455;-86
2023/01/26 04:43:50;;;;;;;1.83;0.50;;;;;;;1.72;100.00;100592.19;10402869;28;20571;-86
2023/01/26 04:48:52;;;;;;;0.50;0.50;;;;;;;1.75;100.00;100596.34;10402625;28;20057;-86
2023/01/26 04:53:55;;;;;;;0.68;0.68;;;;;;;1.72;100.00;100597.59;10402007;28;20046;-85
2023/01/26 04:59:00;;;;;;;0.15;0.15;;;;;;;1.68;100.00;100580.16;10402919;28;20041;-85
2023/01/26 05:04:03;;;;;;;0.85;0.60;;;;;;;1.70;100.00;100579.94;10409221;28;20488;-85
2023/01/26 05:09:09;;;;;;;0.50;0.50;;;;;;;1.84;100.00;100597.69;10403457;28;20034;-85
2023/01/26 05:14:14;;;;;;;0.73;0.50;;;;;;;1.87;100.00;100594.53;10402212;28;20054;-85
2023/01/26 05:19:42;;;;;;;0.63;0.63;;;;;;;1.92;100.00;100604.69;10409084;28;20073;-84
2023/01/26 05:25:04;;;;;;;0.82;0.82;;;;;;;1.84;100.00;100616.63;10408812;28;20104;-85
2023/01/26 05:30:21;;;;;;;0.80;0.45;;;;;;;1.78;100.00;100614.81;10408955;28;20428;-85
2023/01/26 05:35:27;;;;;;;0.98;0.60;;;;;;;2.00;100.00;100599.78;10408797;28;20068;-85
2023/01/26 05:40:30;;;;;;;0.77;0.50;;;;;;;2.02;100.00;100627.47;10408312;28;20055;-85
2023/01/26 05:45:37;;;;;;;1.70;0.68;;;;;;;1.93;100.00;100630.69;10392649;28;20473;-85
2023/01/26 05:50:44;;;;;;;0.47;0.47;;;;;;;1.96;100.00;100641.06;10408485;28;20038;-85
2023/01/26 05:55:52;;;;;;;0.80;0.60;;;;;;;2.07;100.00;100627.59;10408753;28;20042;-85
2023/01/26 06:01:04;;;;;;;1.27;0.63;;;;;;;2.01;100.00;100625.81;10407965;28;20046;-85
2023/01/26 06:06:15;;;;;;;1.35;0.90;;;;;;;2.02;100.00;100640.16;10391770;28;20045;-86
2023/01/26 06:11:37;;;;;;;2.13;1.02;;;;;;;2.10;100.00;100643.41;10406890;28;20049;-86
2023/01/26 06:16:57;;;;;;;0.47;0.47;;;;;;;2.04;100.00;100648.88;10407416;28;20427;-85
2023/01/26 06:22:00;;;;;;;0.80;0.80;;;;;;;1.98;100.00;100656.03;10407567;28;20057;-85
2023/01/26 06:27:05;;;;;;;1.38;0.65;;;;;;;1.97;100.00;100648.13;10405994;28;20064;-86
2023/01/26 06:32:10;;;;;;;1.67;0.95;;;;;;;1.93;100.00;100652.34;10390497;28;20420;-85
2023/01/26 06:37:12;;;;;;;1.98;1.10;;;;;;;1.89;100.00;100651.94;10390489;28;20034;-84
2023/01/26 06:42:16;;;;;;;1.35;0.88;;;;;;;2.07;100.00;100662.78;10389766;28;20057;-84
2023/01/26 06:47:18;;;;;;;0.40;0.40;;;;;;;2.02;100.00;100661.81;10406943;28;20049;-85
2023/01/26 06:52:26;;;;;;;0.68;0.63;;;;;;;1.95;100.00;100669.19;10406739;28;20121;-84
2023/01/26 06:57:37;;;;;;;1.40;1.05;;;;;;;1.93;100.00;100661.28;10405926;28;20057;-84
2023/01/26 07:03:05;;;;;;;3.50;0.85;;;;;;;1.95;100.00;100677.31;10406092;28;20061;-85
2023/01/26 07:08:07;;;;;;;1.30;0.90;;;;;;;1.91;100.00;100666.09;10405192;28;20412;-85
2023/01/26 07:13:10;;;;;;;0.80;0.75;;;;;;;1.92;100.00;100677.75;10404366;28;20050;-84
2023/01/26 07:18:13;;;;;;;1.20;0.73;;;;;;;2.11;100.00;100677.53;10406709;28;20123;-85
2023/01/26 07:23:16;;;;;;;1.63;0.85;;;;;;;2.15;100.00;100682.50;10405534;28;20037;-86
2023/01/26 07:28:18;;;;;;;1.02;1.00;;;;;;;1.97;100.00;100680.59;10405393;28;20412;-84
2023/01/26 07:33:20;;;;;;;2.47;1.08;;;;;;;2.05;100.00;100686.53;10404390;28;20058;-83
2023/01/26 07:38:22;;;;;;;1.55;1.00;;;;;;;1.95;100.00;100688.94;10404681;28;20409;-83
2023/01/26 07:43:25;;;;;;;1.90;1.10;;;;;;;1.79;100.00;100689.53;10403344;28;20049;-84
2023/01/26 07:48:28;;;;;;;1.45;1.23;;;;;;;1.86;100.00;100692.97;10403417;28;20046;-84
2023/01/26 07:53:32;;;;;;;2.45;2.25;;;;;;;1.87;100.00;100691.94;10387384;28;20661;-85
2023/01/26 07:58:35;;;;;;;2.22;1.50;;;;;;;1.95;100.00;100699.78;10404873;28;20037;-84
2023/01/26 08:03:37;;;;;;;2.05;1.52;;;;;;;2.04;100.00;100701.13;10404306;28;20057;-85
2023/01/26 08:08:40;;;;;;;0.98;0.85;;;;;;;2.03;100.00;100702.19;10404072;28;20571;-85
2023/01/26 08:13:42;;;;;;;1.42;1.08;;;;;;;2.14;100.00;100711.44;10403990;28;20516;-84
2023/01/26 08:18:46;;;;;;;1.45;1.00;;;;;;;2.19;100.00;100708.06;10404597;28;20038;-84
2023/01/26 08:23:49;;;;;;;0.88;0.73;;;;;;;2.24;100.00;100713.63;10401824;28;20089;-85
2023/01/26 08:28:51;;;;;;;1.83;0.88;;;;;;;2.07;100.00;100719.63;10387201;28;20042;-85
2023/01/26 08:33:54;;;;;;;1.52;1.00;;;;;;;1.96;100.00;100720.38;10404447;28;20526;-85
2023/01/26 08:38:56;;;;;;;1.15;1.05;;;;;;;1.75;100.00;100710.78;10403748;28;20061;-85
2023/01/26 08:43:59;;;;;;;2.42;1.30;;;;;;;1.73;100.00;100715.56;10403770;28;20042;-85
2023/01/26 08:49:01;;;;;;;1.27;1.13;;;;;;;1.80;100.00;100723.63;10402626;28;20046;-84
2023/01/26 08:54:09;;;;;;;2.17;1.20;;;;;;;1.77;100.00;100713.28;10411665;28;20075;-84
2023/01/26 08:59:11;;;;;;;1.20;1.00;;;;;;;1.77;100.00;100715.97;10410145;28;20041;-85
2023/01/26 09:04:14;;;;;;;2.70;1.38;;;;;;;1.68;100.00;100714.59;10411034;28;20052;-87
2023/01/26 09:09:16;;;;;;;1.60;0.90;;;;;;;1.71;100.00;100709.56;10411076;28;20046;-85
2023/01/26 09:14:18;;;;;;;0.70;0.70;;;;;;;1.83;100.00;100711.53;10410118;28;20060;-85
2023/01/26 09:19:20;;;;;;;0.80;0.80;;;;;;;1.83;100.00;100709.66;10409602;28;20411;-85
2023/01/26 09:24:22;;;;;;;1.48;0.90;;;;;;;1.84;100.00;100707.78;10410182;28;20041;-85
2023/01/26 09:29:28;;;;;;;1.80;0.85;;;;;;;1.71;100.00;100714.13;10410056;28;20038;-84
2023/01/26 09:34:35;;;;;;;0.55;0.55;;;;;;;1.75;100.00;100718.91;10410529;28;20049;-84
2023/01/26 09:39:37;;;;;;;1.02;0.98;;;;;;;1.67;100.00;100713.75;10409597;28;20054;-84
2023/01/26 09:44:51;;;;;;;0.98;0.65;;;;;;;1.55;100.00;100709.28;10409796;28;20061;-86
2023/01/26 09:49:57;;;;;;;4.85;0.77;;;;;;;1.57;100.00;100708.03;10410259;28;20042;-84
2023/01/26 09:55:03;;;;;;;1.55;1.00;;;;;;;1.49;100.00;100698.28;10409370;28;20037;-85
2023/01/26 10:00:19;;;;;;;1.00;0.80;;;;;;;1.60;100.00;100701.34;10408115;28;20045;-85
2023/01/26 10:05:35;;;;;;;1.00;0.70;;;;;;;1.58;100.00;100704.28;10407875;28;20038;-86
2023/01/26 10:10:54;;;;;;;2.38;1.23;;;;;;;1.44;100.00;100703.53;10407406;28;20168;-87
2023/01/26 10:21:33;;;;;;;1.13;0.80;;;;;;;1.49;100.00;100703.72;10407693;28;20062;-87
2023/01/26 10:26:36;;;;;;;1.35;1.10;;;;;;;1.55;100.00;100714.69;10406813;28;20424;-85
2023/01/26 10:31:38;;;;;;;1.10;0.90;;;;;;;1.58;100.00;100714.28;10406126;28;20050;-85
2023/01/26 10:36:43;;;;;;;0.68;0.68;;;;;;;1.52;100.00;100700.56;10407721;28;20440;-85
2023/01/26 10:41:59;;;;;;;1.50;0.80;;;;;;;1.48;100.00;100690.41;10407677;28;20179;-84
2023/01/26 10:47:16;;;;;;;2.00;0.88;;;;;;;1.64;100.00;100689.84;10404558;28;20050;-84
2023/01/26 10:52:21;;;;;;;3.13;0.65;;;;;;;1.67;100.00;100691.28;10404564;28;20042;-85
2023/01/26 10:57:28;;;;;;;1.90;0.88;;;;;;;1.56;100.00;100687.41;10405646;28;20046;-84
2023/01/26 11:02:31;;;;;;;1.20;1.02;;;;;;;1.56;100.00;100690.13;10406343;28;20073;-84
2023/01/26 11:07:42;;;;;;;1.02;0.95;;;;;;;1.38;100.00;100690.88;10406394;28;20041;-84
2023/01/26 11:12:44;;;;;;;1.48;0.90;;;;;;;1.33;100.00;100687.19;10404371;28;20056;-85
2023/01/26 11:18:01;;;;;;;4.05;1.38;;;;;;;1.34;100.00;100683.44;10406691;28;20056;-85
2023/01/26 11:23:32;;;;;;;1.02;0.93;;;;;;;1.28;100.00;100681.63;10404635;28;20046;-84
2023/01/26 11:29:12;;;;;;;1.77;0.60;;;;;;;1.45;100.00;100682.75;10407241;28;20504;-85
2023/01/26 11:34:42;;;;;;;1.33;1.08;;;;;;;1.37;100.00;100683.81;10411250;28;20054;-84
2023/01/26 11:40:25;;;;;;;1.77;0.90;;;;;;;1.25;100.00;100696.41;10409407;28;20408;-84
2023/01/26 11:45:35;;;;;;;1.00;0.80;;;;;;;1.21;100.00;100703.28;10362336;28;20034;-84
2023/01/26 11:50:47;;;;;;;1.70;0.77;;;;;;;1.19;100.00;100689.97;10402610;28;20064;-83
2023/01/26 11:56:27;;;;;;;2.45;1.02;;;;;;;1.35;100.00;100680.50;10407156;28;20052;-84
2023/01/26 12:01:34;;;;;;;2.63;1.30;;;;;;;1.34;100.00;100678.03;10397019;28;20053;-84
2023/01/26 12:06:39;;;;;;;2.40;1.08;;;;;;;1.13;100.00;100685.47;10388186;28;20041;-85
2023/01/26 12:12:04;;;;;;;1.30;1.05;;;;;;;1.24;100.00;100685.81;10403520;28;20050;-84
2023/01/26 12:17:31;;;;;;;0.98;0.98;;;;;;;1.28;100.00;100705.94;10404462;28;20038;-86
2023/01/26 12:22:36;;;;;;;1.27;1.13;;;;;;;1.15;100.00;100704.16;10404797;28;20050;-84
2023/01/26 12:27:44;;;;;;;1.60;1.10;;;;;;;1.22;100.00;100710.38;10401576;28;20045;-85
2023/01/26 12:32:46;;;;;;;;;;;;;;;1.20;100.00;100709.72;10403707;28;20056;-84
2023/01/26 12:38:08;;;;;;;1.08;0.90;;;;;;;1.09;100.00;100715.84;10405490;28;19917;-85
2023/01/26 12:43:25;;;;;;;1.25;1.15;;;;;;;1.29;100.00;100713.00;10402704;28;20046;-84
2023/01/26 12:48:35;;;;;;;1.10;1.00;;;;;;;1.23;100.00;100717.44;10403919;28;20045;-84
2023/01/26 12:53:55;;;;;;;1.77;1.27;;;;;;;1.12;100.00;100735.16;10404537;28;20484;-84
2023/01/26 12:58:59;;;;;;;2.70;1.08;;;;;;;1.24;100.00;100718.25;10404020;28;20042;-85
2023/01/26 13:04:07;;;;;;;2.28;1.40;;;;;;;1.13;100.00;100717.88;10398146;28;20085;-84
2023/01/26 13:09:23;;;;;;;1.17;1.08;;;;;;;1.13;100.00;100722.47;10401640;28;20046;-84
2023/01/26 13:14:25;;;;;;;2.40;1.50;;;;;;;1.00;100.00;100722.53;10402877;28;20504;-84
2023/01/26 13:19:42;;;;;;;1.50;1.10;;;;;;;1.07;100.00;100724.16;10402721;28;20042;-84
2023/01/26 13:24:47;;;;;;;2.63;1.37;;;;;;;1.10;100.00;100728.31;10402650;28;20049;-85
2023/01/26 13:29:55;;;;;;;3.97;1.23;;;;;;;1.11;100.00;100733.50;10402012;28;20058;-84
2023/01/26 13:34:59;;;;;;;;;;;;;;;1.11;100.00;100730.78;10403338;28;20527;-83
2023/01/26 13:40:14;;;;;;;2.08;1.23;;;;;;;1.12;100.00;100734.31;10408115;28;19929;-85
2023/01/26 13:45:21;;;;;;;3.08;1.33;;;;;;;1.17;100.00;100724.50;10392091;28;20054;-84
2023/01/26 13:50:37;;;;;;;1.27;1.00;;;;;;;1.16;100.00;100724.72;10408201;28;20045;-84
2023/01/26 13:55:43;;;;;;;1.38;1.27;;;;;;;1.15;100.00;100725.78;10408155;28;20050;-86
2023/01/26 14:00:57;;;;;;;1.80;1.15;;;;;;;1.17;100.00;100735.31;10407882;28;20054;-85
2023/01/26 14:06:03;;;;;;;2.50;0.95;;;;;;;1.24;100.00;100732.59;10408568;28;20049;-84
2023/01/26 14:11:16;;;;;;;1.80;1.27;;;;;;;1.33;100.00;100733.97;10408675;28;20042;-84
2023/01/26 14:16:36;;;;;;;1.63;1.27;;;;;;;1.41;100.00;100739.13;10407670;28;20045;-84
2023/01/26 14:21:47;;;;;;;2.63;1.63;;;;;;;1.32;100.00;100747.72;10408255;28;20523;-84
2023/01/26 14:26:49;;;;;;;4.10;1.20;;;;;;;1.31;100.00;100741.47;10406328;28;20535;-84
2023/01/26 14:31:53;;;;;;;2.50;1.50;;;;;;;1.32;100.00;100756.66;10407915;28;20050;-84
2023/01/26 14:37:13;;;;;;;3.13;1.50;;;;;;;1.20;100.00;100766.50;10406166;28;20405;-83
2023/01/26 14:42:17;;;;;;;1.60;1.50;;;;;;;1.04;100.00;100777.78;10407113;28;20053;-84
2023/01/26 14:47:24;;;;;;;2.22;1.40;;;;;;;0.97;100.00;100777.00;10404937;28;20048;-84
2023/01/26 14:52:29;;;;;;;2.72;1.60;;;;;;;0.89;100.00;100780.78;10406214;28;20046;-85
2023/01/26 14:57:31;;;;;;;2.95;1.80;;;;;;;0.91;100.00;100784.09;10405404;28;20463;-85
2023/01/26 15:02:37;;;;;;;2.10;1.42;;;;;;;0.96;100.00;100791.56;10405436;28;20056;-85
2023/01/26 15:07:39;;;;;;;1.58;1.20;;;;;;;1.09;100.00;100786.94;10405321;28;20523;-85
2023/01/26 15:12:41;;;;;;;3.28;1.75;;;;;;;1.13;100.00;100798.97;10406349;28;20060;-84
2023/01/26 15:17:43;;;;;;;1.65;1.17;;;;;;;1.07;100.00;100797.13;10406939;28;20125;-85
2023/01/26 15:22:51;;;;;;;2.47;1.52;;;;;;;1.02;100.00;100793.41;10405553;28;20053;-85
2023/01/26 15:27:58;;;;;;;2.90;1.35;;;;;;;0.97;100.00;100783.25;10404318;28;20037;-83
2023/01/26 15:33:01;;;;;;;1.88;1.25;;;;;;;0.99;100.00;100777.63;10404076;28;20557;-84
2023/01/26 15:38:08;;;;;;;2.40;1.50;;;;;;;1.04;100.00;100777.78;10403774;28;20042;-84
2023/01/26 15:43:11;;;;;;;2.58;1.65;;;;;;;1.01;100.00;100780.94;10405309;28;20042;-84
2023/01/26 15:48:13;;;;;;;2.17;1.98;;;;;;;1.11;100.00;100778.59;10405412;28;20049;-84
2023/01/26 15:53:20;;;;;;;2.45;1.75;;;;;;;1.10;100.00;100783.19;10404829;28;20042;-84
2023/01/26 15:58:23;;;;;;;4.93;1.98;;;;;;;1.04;100.00;100785.91;10404410;28;20240;-84
2023/01/26 16:03:25;;;;;;;2.22;1.35;;;;;;;0.99;100.00;100796.53;10404637;28;20057;-86
2023/01/26 16:08:28;;;;;;;2.08;1.63;;;;;;;0.96;100.00;100791.56;10402751;28;20536;-84
2023/01/26 16:13:30;;;;;;;3.17;1.73;;;;;;;0.91;100.00;100805.72;10404568;28;20044;-85
2023/01/26 16:18:32;;;;;;;1.25;1.13;;;;;;;0.88;100.00;100801.59;10405040;28;20623;-85
2023/01/26 16:23:34;;;;;;;4.22;1.48;;;;;;;0.93;100.00;100809.03;10404396;28;20077;-84
2023/01/26 16:28:37;;;;;;;2.05;1.52;;;;;;;1.00;100.00;100809.00;10403996;28;20425;-84
2023/01/26 16:33:39;;;;;;;2.20;1.40;;;;;;;1.03;100.00;100819.38;10402345;28;20053;-85
2023/01/26 16:38:42;;;;;;;2.70;1.55;;;;;;;0.97;100.00;100820.25;10403100;28;20077;-84
2023/01/26 16:43:44;;;;;;;2.58;1.98;;;;;;;0.99;100.00;100816.28;10403858;28;20053;-83
2023/01/26 16:48:46;;;;;;;5.35;2.05;;;;;;;0.94;100.00;100820.66;10402673;28;20520;-85
2023/01/26 16:53:49;;;;;;;3.38;1.90;;;;;;;0.97;100.00;100831.88;10404645;28;20072;-85
2023/01/26 16:58:51;;;;;;;2.13;1.65;;;;;;;0.90;100.00;100829.22;10403250;28;20038;-85
2023/01/26 17:03:54;;;;;;;4.35;2.25;;;;;;;0.88;100.00;100833.16;10403027;28;20045;-84
2023/01/26 17:08:57;;;;;;;2.63;1.70;;;;;;;0.84;100.00;100840.00;10385432;28;20069;-86
2023/01/26 17:13:59;;;;;;;4.32;2.58;;;;;;;0.87;100.00;100845.84;10409528;28;20053;-85
2023/01/26 17:19:01;;;;;;;3.08;1.60;;;;;;;0.90;100.00;100844.59;10411290;28;20054;-84
2023/01/26 17:24:05;;;;;;;2.10;1.50;;;;;;;0.93;100.00;100851.44;10410671;28;20424;-85
2023/01/26 17:29:08;;;;;;;4.00;2.30;;;;;;;0.92;100.00;100855.19;10409999;28;20053;-86
2023/01/26 17:34:11;;;;;;;5.20;2.47;;;;;;;1.08;100.00;100855.53;10408962;28;20037;-85
2023/01/26 17:39:13;;;;;;;2.47;1.77;;;;;;;0.90;100.00;100852.69;10409623;28;20046;-85
2023/01/26 17:44:15;;;;;;;2.67;2.17;;;;;;;0.95;100.00;100862.84;10409844;28;20448;-85
2023/01/26 17:49:20;;;;;;;5.63;2.30;;;;;;;1.02;100.00;100866.34;10409370;28;20046;-84
2023/01/26 17:54:22;;;;;;;5.00;2.75;;;;;;;1.17;100.00;100875.88;10408526;28;20042;-85
2023/01/26 17:59:25;;;;;;;3.40;1.67;;;;;;;1.00;100.00;100880.09;10409893;28;20054;-88
2023/01/26 18:04:27;;;;;;;3.28;1.80;;;;;;;0.87;100.00;100888.25;10408976;28;20053;-85
2023/01/26 18:09:30;;;;;;;3.97;2.13;;;;;;;1.35;100.00;100882.44;10409059;28;20390;-86
2023/01/26 18:14:32;;;;;;;3.40;2.30;;;;;;;1.40;100.00;100883.50;10409319;28;20049;-86
2023/01/26 18:19:34;;;;;;;2.33;1.73;;;;;;;1.56;100.00;100901.06;10408670;28;20042;-86
2023/01/26 18:24:36;;;;;;;3.05;1.95;;;;;;;1.46;100.00;100912.34;10407845;28;20050;-84
2023/01/26 18:29:38;;;;;;;5.00;2.30;;;;;;;1.47;100.00;100914.03;10408184;28;20061;-83
2023/01/26 18:34:42;;;;;;;3.15;2.15;;;;;;;1.63;100.00;100915.41;10408215;28;20500;-85
2023/01/26 18:39:44;;;;;;;4.40;2.15;;;;;;;1.78;100.00;100915.94;10406176;28;20054;-85
2023/01/26 18:44:47;;;;;;;4.60;2.13;;;;;;;1.86;99.41;100930.25;10389760;28;20049;-84
2023/01/26 18:49:49;;;;;;;4.50;2.13;;;;;;;1.82;99.58;100935.28;10408031;28;20053;-85
2023/01/26 18:54:51;;;;;;;4.45;2.33;;;;;;;1.77;98.96;100935.09;10407558;28;20540;-83
2023/01/26 18:59:53;;;;;;;4.07;1.88;;;;;;;1.45;98.67;100948.56;10407364;28;20041;-85
2023/01/26 19:04:56;;;;;;;4.20;2.17;;;;;;;1.26;98.90;100954.03;10407690;28;20061;-85
2023/01/26 19:09:58;;;;;;;4.07;1.80;;;;;;;1.16;99.15;100963.41;10406694;28;20052;-83
2023/01/26 19:15:00;;;;;;;0.88;0.80;;;;;;;0.91;99.17;100965.13;10408970;28;20057;-85
2023/01/26 19:20:03;;;;;;;2.50;1.10;;;;;;;0.72;98.36;100961.41;10427592;28;20052;-83
2023/01/26 19:25:05;;;;;;;1.88;0.82;;;;;;;0.68;98.05;100962.84;10431511;28;20060;-83
2023/01/26 19:30:08;;;;;;;0.35;0.30;;;;;;;0.61;97.21;100978.22;10430033;28;20140;-83
2023/01/26 19:35:11;;;;;;;0.77;0.57;;;;;;;0.52;96.90;100971.34;10429506;28;20113;-86
2023/01/26 19:40:13;;;;;;;2.78;0.98;;;;;;;0.55;97.31;100985.28;10427344;28;20056;-84
2023/01/26 19:45:15;;;;;;;1.60;0.80;;;;;;;0.49;97.67;100985.25;10417649;28;20052;-85
2023/01/26 19:50:18;;;;;;;0.75;0.57;;;;;;;0.51;96.84;100993.97;10417660;28;20041;-84
2023/01/26 19:55:20;;;;;;;1.10;0.65;;;;;;;0.48;96.54;100986.31;10408379;28;20531;-85
2023/01/26 20:00:23;;;;;;;0.63;0.40;;;;;;;0.49;97.18;100991.50;10408202;28;20053;-85
2023/01/26 20:05:25;;;;;;;0.45;0.45;;;;;;;0.47;97.17;100992.75;10409352;28;20409;-85
2023/01/26 20:10:27;;;;;;;1.55;0.60;;;;;;;0.52;96.44;101004.59;10405117;28;20045;-86
2023/01/26 20:15:29;;;;;;;0.32;0.25;;;;;;;0.51;96.87;101011.00;10406174;28;20049;-85
2023/01/26 20:20:32;;;;;;;0.68;0.40;;;;;;;0.53;96.48;101008.97;10405540;28;20398;-85
2023/01/26 20:25:36;;;;;;;0.50;0.50;;;;;;;0.68;96.67;101011.44;10403822;28;20060;-84
2023/01/26 20:30:38;;;;;;;0.82;0.45;;;;;;;0.58;95.48;101021.84;10405659;28;20058;-85
2023/01/26 20:35:42;;;;;;;0.60;0.60;;;;;;;0.58;95.86;101027.25;10405039;28;20045;-85
2023/01/26 20:40:44;;;;;;;0.50;0.50;;;;;;;0.57;95.30;101039.91;10404232;28;20053;-86
2023/01/26 20:45:46;;;;;;;0.60;0.60;;;;;;;0.52;95.23;101053.22;10405449;28;20061;-85
2023/01/26 20:50:49;;;;;;;1.00;0.52;;;;;;;0.30;94.17;101060.59;10411824;28;20042;-84
2023/01/26 20:55:57;;;;;;;0.65;0.52;;;;;;;0.29;94.20;101072.44;10413017;28;20060;-86
2023/01/26 21:01:11;;;;;;;0.50;0.50;;;;;;;0.36;94.16;101080.59;10412364;28;20057;-85
2023/01/26 21:06:17;;;;;;;0.80;0.47;;;;;;;0.44;94.42;101069.59;10410942;28;20176;-85
2023/01/26 21:11:20;;;;;;;0.40;0.40;;;;;;;0.31;92.57;101074.94;10394852;28;20045;-84
2023/01/26 21:16:23;;;;;;;0.75;0.68;;;;;;;0.27;92.85;101089.88;10412268;28;20508;-85
2023/01/26 21:21:25;;;;;;;0.40;0.30;;;;;;;0.09;91.51;101098.53;10411236;28;20052;-85
2023/01/26 21:26:27;;;;;;;0.30;0.30;;;;;;;0.19;92.23;101099.00;10411495;28;20057;-85
2023/01/26 21:31:31;;;;;;;0.40;0.40;;;;;;;0.34;92.53;101096.13;10411508;28;20038;-84
2023/01/26 21:36:33;;;;;;;0.40;0.40;;;;;;;0.32;92.04;101114.38;10413170;28;20508;-86
2023/01/26 21:46:58;;;;;;;0.50;0.50;;;;;;;0.28;91.08;101124.75;10408753;28;20048;-85
2023/01/26 22:02:45;;;;;;;1.10;0.60;;;;;;;0.23;91.73;101134.50;10407267;28;20057;-87
2023/01/26 22:07:47;;;;;;;0.45;0.45;;;;;;;0.20;90.82;101143.84;10407516;28;20045;-86
2023/01/26 22:12:49;;;;;;;0.90;0.57;;;;;;;0.19;90.44;101146.75;10406210;28;20056;-86
2023/01/26 22:17:51;;;;;;;1.52;0.50;;;;;;;0.20;90.42;101151.94;10407023;28;20401;-86
2023/01/26 22:22:53;;;;;;;0.30;0.30;;;;;;;0.13;90.30;101166.41;10406882;28;20061;-85
2023/01/26 22:27:56;;;;;;;0.70;0.70;;;;;;;0.17;90.56;101173.91;10405262;28;20073;-86
2023/01/26 22:32:58;;;;;;;0.43;0.40;;;;;;;0.25;89.62;101186.41;10406278;28;20535;-84
2023/01/26 22:38:00;;;;;;;0.75;0.40;;;;;;;0.09;88.70;101190.28;10389078;28;20056;-84
2023/01/26 22:43:02;;;;;;;0.28;0.28;;;;;;;0.13;88.28;101207.72;10364992;28;1187429;-83
2023/01/26 22:48:05;;;;;;;0.75;0.55;;;;;;;0.07;88.72;101205.84;10408151;28;20064;-86
2023/01/26 22:53:07;;;;;;;0.40;0.40;;;;;;;0.01;88.04;101209.34;10407288;28;20508;-85
2023/01/26 22:58:10;;;;;;;0.50;0.40;;;;;;;-0.09;88.28;101215.06;10389981;28;20240;-85
2023/01/26 23:03:13;;;;;;;0.50;0.50;;;;;;;-0.16;88.28;101229.53;10407770;28;20053;-85
2023/01/26 23:08:15;;;;;;;0.30;0.30;;;;;;;-0.17;87.55;101236.81;10406242;28;20034;-85
2023/01/26 23:13:17;;;;;;;0.63;0.30;;;;;;;-0.25;87.95;101241.50;10407192;28;20054;-85
2023/01/26 23:18:19;;;;;;;0.40;0.40;;;;;;;-0.39;87.62;101246.78;10406327;28;20048;-84
2023/01/26 23:23:22;;;;;;;2.17;0.50;;;;;;;-0.42;87.44;101257.13;10405502;28;20049;-84
2023/01/26 23:28:29;;;;;;;0.40;0.40;;;;;;;-0.52;87.42;101238.59;10406479;28;20045;-84
2023/01/26 23:33:34;;;;;;;0.40;0.30;;;;;;;-0.37;87.60;101251.97;10406488;28;20413;-86
2023/01/26 23:38:36;;;;;;;0.38;0.38;;;;;;;-0.28;88.22;101250.81;10405422;28;20048;-85
2023/01/26 23:43:39;;;;;;;0.30;0.30;;;;;;;-0.26;88.03;101270.31;10404442;28;20054;-84
2023/01/26 23:48:41;;;;;;;0.22;0.22;;;;;;;-0.31;87.86;101268.22;10405698;28;20046;-86
2023/01/26 23:53:43;;;;;;;0.30;0.30;;;;;;;-0.45;86.56;101276.38;10405694;28;20523;-85
2023/01/26 23:58:45;;;;;;;0.35;0.35;;;;;;;-0.47;85.86;101271.19;10405020;28;20420;-86
